createdAt,value
2022-09-10T00:01:32.736Z,16.17
2022-09-10T00:04:04.774Z,16.17
2022-09-10T00:06:35.439Z,16.16
2022-09-10T00:09:03.708Z,16.16
2022-09-10T00:11:32.450Z,16.15
2022-09-10T00:14:01.894Z,16.15
2022-09-10T00:16:32.359Z,16.14
2022-09-10T00:19:02.690Z,16.13
2022-09-10T00:21:32.027Z,16.13
2022-09-10T00:24:03.069Z,16.12
2022-09-10T00:26:35.304Z,16.09
2022-09-10T00:29:03.616Z,16.09
2022-09-10T00:31:33.945Z,16.07
2022-09-10T00:34:05.789Z,16.06
2022-09-10T00:36:36.665Z,16.04
2022-09-10T00:39:07.146Z,16.05
2022-09-10T00:41:36.752Z,16.04
2022-09-10T00:44:07.515Z,16.02
2022-09-10T00:46:42.660Z,16.01
2022-09-10T00:49:15.675Z,16.01
2022-09-10T00:51:45.134Z,16.02
2022-09-10T00:54:15.150Z,16.01
2022-09-10T00:56:43.615Z,16.01
2022-09-10T00:59:16.752Z,16.00
2022-09-10T01:01:45.890Z,16.01
2022-09-10T01:04:17.173Z,16.02
2022-09-10T01:06:47.358Z,16.02
2022-09-10T01:09:16.071Z,16.03
2022-09-10T01:12:04.570Z,16.04
2022-09-10T01:14:52.127Z,16.04
2022-09-10T01:17:30.158Z,16.06
2022-09-10T01:20:38.217Z,16.06
2022-09-10T01:23:37.680Z,16.07
2022-09-10T01:26:19.225Z,16.07
2022-09-10T01:29:01.129Z,16.06
2022-09-10T01:31:38.817Z,16.06
2022-09-10T01:34:24.994Z,16.06
2022-09-10T01:36:59.082Z,16.06
2022-09-10T01:39:28.857Z,16.05
2022-09-10T01:41:58.817Z,16.05
2022-09-10T01:44:44.362Z,16.05
2022-09-10T01:47:26.171Z,16.04
2022-09-10T01:50:14.889Z,16.03
2022-09-10T01:52:54.561Z,16.03
2022-09-10T01:55:35.118Z,16.02
2022-09-10T01:58:14.099Z,16.00
2022-09-10T02:00:56.802Z,15.99
2022-09-10T02:03:27.236Z,15.98
2022-09-10T02:05:57.331Z,15.99
2022-09-10T02:08:31.009Z,15.98
2022-09-10T02:11:00.798Z,15.98
2022-09-10T02:13:34.613Z,15.97
2022-09-10T02:16:23.163Z,15.96
2022-09-10T02:18:52.054Z,15.96
2022-09-10T02:21:20.886Z,15.96
2022-09-10T02:23:54.594Z,15.98
2022-09-10T02:26:23.266Z,15.97
2022-09-10T02:28:51.778Z,15.97
2022-09-10T02:31:21.555Z,15.96
2022-09-10T02:33:51.193Z,15.97
2022-09-10T02:36:19.799Z,15.97
2022-09-10T02:38:49.598Z,15.97
2022-09-10T02:41:17.889Z,15.97
2022-09-10T02:43:46.213Z,15.95
2022-09-10T02:46:15.070Z,15.96
2022-09-10T02:48:45.574Z,15.96
2022-09-10T02:51:14.781Z,15.96
2022-09-10T02:53:43.274Z,15.96
2022-09-10T02:56:12.363Z,15.95
2022-09-10T02:58:40.689Z,15.95
2022-09-10T03:01:10.697Z,15.96
2022-09-10T03:03:40.117Z,15.94
2022-09-10T03:06:10.527Z,15.94
2022-09-10T03:08:38.961Z,15.93
2022-09-10T03:11:08.172Z,15.91
2022-09-10T03:13:36.456Z,15.92
2022-09-10T03:16:04.963Z,15.90
2022-09-10T03:18:35.253Z,15.90
2022-09-10T03:21:14.815Z,15.90
2022-09-10T03:23:44.814Z,15.90
2022-09-10T03:26:15.024Z,15.89
2022-09-10T03:28:44.883Z,15.88
2022-09-10T03:31:15.914Z,15.87
2022-09-10T03:33:48.209Z,15.88
2022-09-10T03:36:18.941Z,15.86
2022-09-10T03:38:49.577Z,15.87
2022-09-10T03:41:17.841Z,15.87
2022-09-10T03:43:47.062Z,15.87
2022-09-10T03:46:16.382Z,15.88
2022-09-10T03:48:48.545Z,15.88
2022-09-10T03:51:23.146Z,15.88
2022-09-10T03:53:51.385Z,15.88
2022-09-10T03:56:22.397Z,15.88
2022-09-10T03:58:51.118Z,15.88
2022-09-10T04:01:20.816Z,15.88
2022-09-10T04:03:50.387Z,15.87
2022-09-10T04:06:18.803Z,15.87
2022-09-10T04:08:52.691Z,15.87
2022-09-10T04:11:23.919Z,15.86
2022-09-10T04:13:52.828Z,15.86
2022-09-10T04:16:23.197Z,15.87
2022-09-10T04:18:51.679Z,15.87
2022-09-10T04:21:20.971Z,15.88
2022-09-10T04:23:56.275Z,15.88
2022-09-10T04:26:24.716Z,15.89
2022-09-10T04:28:53.461Z,15.88
2022-09-10T04:31:23.460Z,15.87
2022-09-10T04:33:55.873Z,15.87
2022-09-10T04:36:27.000Z,15.89
2022-09-10T04:38:56.808Z,15.88
2022-09-10T04:41:25.127Z,15.88
2022-09-10T04:43:55.102Z,15.88
2022-09-10T04:46:24.670Z,15.88
2022-09-10T04:48:55.203Z,15.88
2022-09-10T04:51:25.854Z,15.87
2022-09-10T04:53:57.962Z,15.86
2022-09-10T04:56:30.859Z,15.86
2022-09-10T04:59:00.864Z,15.87
2022-09-10T05:01:31.954Z,15.85
2022-09-10T05:04:00.283Z,15.85
2022-09-10T05:06:28.590Z,15.85
2022-09-10T05:08:58.942Z,15.85
2022-09-10T05:11:27.839Z,15.85
2022-09-10T05:13:56.139Z,15.85
2022-09-10T05:16:28.504Z,15.84
2022-09-10T05:18:57.102Z,15.84
2022-09-10T05:21:27.140Z,15.86
2022-09-10T05:23:57.068Z,15.86
2022-09-10T05:26:28.626Z,15.85
2022-09-10T05:28:59.707Z,15.85
2022-09-10T05:31:28.799Z,15.85
2022-09-10T05:33:59.283Z,15.85
2022-09-10T05:36:27.806Z,15.85
2022-09-10T05:38:56.135Z,15.84
2022-09-10T05:41:25.190Z,15.83
2022-09-10T05:43:56.633Z,15.84
2022-09-10T05:46:25.376Z,15.85
2022-09-10T05:48:56.554Z,15.84
2022-09-10T05:51:27.794Z,15.84
2022-09-10T05:53:57.479Z,15.86
2022-09-10T05:56:27.057Z,15.86
2022-09-10T05:58:56.735Z,15.86
2022-09-10T06:01:25.013Z,15.86
2022-09-10T06:03:53.731Z,15.86
2022-09-10T06:06:22.013Z,15.86
2022-09-10T06:08:57.585Z,15.85
2022-09-10T06:11:41.826Z,15.85
2022-09-10T06:14:14.836Z,15.85
2022-09-10T06:16:43.264Z,15.85
2022-09-10T06:19:12.574Z,15.85
2022-09-10T06:21:41.210Z,15.85
2022-09-10T06:24:10.617Z,15.84
2022-09-10T06:26:42.646Z,15.84
2022-09-10T06:29:15.595Z,15.85
2022-09-10T06:31:44.506Z,15.85
2022-09-10T06:34:14.054Z,15.85
2022-09-10T06:36:43.583Z,15.86
2022-09-10T06:39:13.065Z,15.87
2022-09-10T06:41:49.911Z,15.87
2022-09-10T06:44:52.023Z,15.87
2022-09-10T06:50:17.380Z,15.90
2022-09-10T06:52:48.785Z,15.91
2022-09-10T06:55:19.459Z,15.92
2022-09-10T06:57:48.442Z,15.93
2022-09-10T07:00:20.173Z,15.93
2022-09-10T07:02:53.463Z,15.94
2022-09-10T07:05:23.152Z,15.92
2022-09-10T07:07:52.383Z,15.93
2022-09-10T07:10:21.515Z,15.93
2022-09-10T07:12:50.126Z,15.94
2022-09-10T07:15:20.671Z,15.95
2022-09-10T07:17:49.020Z,15.96
2022-09-10T07:20:18.113Z,15.98
2022-09-10T07:22:48.227Z,15.98
2022-09-10T07:25:19.867Z,15.99
2022-09-10T07:27:56.059Z,16.02
2022-09-10T07:30:27.263Z,16.02
2022-09-10T07:32:56.688Z,16.03
2022-09-10T07:35:28.490Z,16.04
2022-09-10T07:37:57.128Z,16.06
2022-09-10T07:40:28.201Z,16.05
2022-09-10T07:42:59.082Z,16.07
2022-09-10T07:45:30.238Z,16.06
2022-09-10T07:48:00.039Z,16.06
2022-09-10T07:50:28.778Z,16.07
2022-09-10T07:52:58.066Z,16.07
2022-09-10T07:55:27.259Z,16.08
2022-09-10T07:57:59.886Z,16.10
2022-09-10T08:00:31.522Z,16.10
2022-09-10T08:03:04.549Z,16.10
2022-09-10T08:05:32.843Z,16.12
2022-09-10T08:08:03.394Z,16.15
2022-09-10T08:10:31.715Z,16.18
2022-09-10T08:13:00.509Z,16.22
2022-09-10T08:15:28.831Z,16.26
2022-09-10T08:18:01.646Z,16.29
2022-09-10T08:20:31.070Z,16.31
2022-09-10T08:23:00.653Z,16.33
2022-09-10T08:25:28.920Z,16.34
2022-09-10T08:27:58.357Z,16.37
2022-09-10T08:30:27.213Z,16.39
2022-09-10T08:32:56.459Z,16.44
2022-09-10T08:35:27.439Z,16.48
2022-09-10T08:37:55.814Z,16.52
2022-09-10T08:40:24.086Z,16.57
2022-09-10T08:42:53.591Z,16.60
2022-09-10T08:45:29.059Z,16.64
2022-09-10T08:48:04.282Z,16.68
2022-09-10T08:50:42.545Z,16.72
2022-09-10T08:53:25.769Z,16.75
2022-09-10T08:55:57.678Z,16.77
2022-09-10T08:58:31.754Z,16.81
2022-09-10T09:01:05.850Z,16.85
2022-09-10T09:03:39.299Z,16.90
2022-09-10T09:06:18.737Z,16.93
2022-09-10T09:08:49.985Z,16.96
2022-09-10T09:11:34.613Z,16.98
2022-09-10T09:14:33.460Z,17.00
2022-09-10T09:17:24.849Z,17.03
2022-09-10T09:20:02.953Z,17.01
2022-09-10T09:22:46.906Z,16.99
2022-09-10T09:25:23.584Z,16.95
2022-09-10T09:27:56.230Z,16.91
2022-09-10T09:30:32.181Z,16.87
2022-09-10T09:33:13.269Z,16.81
2022-09-10T09:35:48.529Z,16.76
2022-09-10T09:38:24.614Z,16.70
2022-09-10T09:40:57.677Z,16.67
2022-09-10T09:43:38.470Z,16.60
2022-09-10T09:46:16.006Z,16.57
2022-09-10T09:48:48.001Z,16.53
2022-09-10T09:51:20.924Z,16.52
2022-09-10T09:54:01.146Z,16.51
2022-09-10T09:56:45.548Z,16.50
2022-09-10T09:59:27.522Z,16.49
2022-09-10T10:02:00.151Z,16.50
2022-09-10T10:04:31.209Z,16.51
2022-09-10T10:07:01.907Z,16.50
2022-09-10T10:09:33.627Z,16.50
2022-09-10T10:12:04.439Z,16.49
2022-09-10T10:14:39.297Z,16.50
2022-09-10T10:17:30.666Z,16.50
2022-09-10T10:20:13.574Z,16.50
2022-09-10T10:22:43.183Z,16.49
2022-09-10T10:25:49.456Z,16.47
2022-09-10T10:28:23.919Z,16.45
2022-09-10T10:30:53.318Z,16.42
2022-09-10T10:33:28.607Z,16.37
2022-09-10T10:36:06.645Z,16.35
2022-09-10T10:38:37.480Z,16.33
2022-09-10T10:41:34.482Z,16.31
2022-09-10T10:44:24.251Z,16.29
2022-09-10T10:47:11.495Z,16.27
2022-09-10T10:49:50.763Z,16.26
2022-09-10T10:52:28.176Z,16.20
2022-09-10T10:55:11.641Z,16.14
2022-09-10T10:57:57.284Z,16.08
2022-09-10T11:00:25.877Z,16.06
2022-09-10T11:03:03.810Z,16.04
2022-09-10T11:05:38.539Z,16.02
2022-09-10T11:08:11.381Z,16.00
2022-09-10T11:10:44.554Z,16.00
2022-09-10T11:13:21.839Z,15.99
2022-09-10T11:15:59.231Z,16.02
2022-09-10T11:18:33.924Z,16.05
2022-09-10T11:21:05.637Z,16.08
2022-09-10T11:23:40.743Z,16.08
2022-09-10T11:26:15.329Z,16.09
2022-09-10T11:28:52.102Z,16.09
2022-09-10T11:31:31.582Z,16.11
2022-09-10T11:34:05.490Z,16.15
2022-09-10T11:36:41.925Z,16.13
2022-09-10T11:39:18.940Z,16.12
2022-09-10T11:41:50.067Z,16.12
2022-09-10T11:44:36.743Z,16.14
2022-09-10T11:47:14.316Z,16.14
2022-09-10T11:49:51.033Z,16.17
2022-09-10T11:52:21.120Z,16.22
2022-09-10T11:54:49.574Z,16.28
2022-09-10T11:57:30.082Z,16.33
2022-09-10T12:00:09.086Z,16.36
2022-09-10T12:03:16.345Z,16.37
2022-09-10T12:05:58.034Z,16.37
2022-09-10T12:08:38.281Z,16.37
2022-09-10T12:11:15.078Z,16.38
2022-09-10T12:13:46.903Z,16.41
2022-09-10T12:16:26.491Z,16.42
2022-09-10T12:18:57.597Z,16.44
2022-09-10T12:21:34.168Z,16.46
2022-09-10T12:24:07.503Z,16.50
2022-09-10T12:26:43.991Z,16.56
2022-09-10T12:29:29.509Z,16.60
2022-09-10T12:32:37.437Z,16.66
2022-09-10T12:35:45.083Z,16.72
2022-09-10T12:38:49.950Z,16.80
2022-09-10T12:41:56.912Z,16.86
2022-09-10T12:44:45.701Z,16.93
2022-09-10T12:47:46.707Z,16.98
2022-09-10T12:50:22.887Z,17.02
2022-09-10T12:53:20.637Z,17.04
2022-09-10T12:55:59.672Z,17.07
2022-09-10T12:58:47.430Z,17.10
2022-09-10T13:01:26.230Z,17.12
2022-09-10T13:04:00.364Z,17.18
2022-09-10T13:06:38.173Z,17.22
2022-09-10T13:09:18.365Z,17.27
2022-09-10T13:11:52.372Z,17.30
2022-09-10T13:14:24.654Z,17.38
2022-09-10T13:16:52.973Z,17.42
2022-09-10T13:19:50.051Z,17.45
2022-09-10T13:23:02.278Z,17.49
2022-09-10T13:25:40.181Z,17.50
2022-09-10T13:28:46.363Z,17.51
2022-09-10T13:31:33.000Z,17.54
2022-09-10T13:34:52.479Z,17.56
2022-09-10T13:37:36.110Z,17.61
2022-09-10T13:40:26.620Z,17.64
2022-09-10T13:43:21.892Z,17.68
2022-09-10T13:45:53.505Z,17.73
2022-09-10T13:48:26.082Z,17.75
2022-09-10T13:51:01.262Z,17.79
2022-09-10T13:53:31.361Z,17.82
2022-09-10T13:56:12.344Z,17.85
2022-09-10T13:58:48.850Z,17.86
2022-09-10T14:01:17.582Z,17.87
2022-09-10T14:03:47.304Z,17.84
2022-09-10T14:06:21.210Z,17.83
2022-09-10T14:08:53.471Z,17.81
2022-09-10T14:11:25.000Z,17.79
2022-09-10T14:13:57.710Z,17.78
2022-09-10T14:16:32.818Z,17.77
2022-09-10T14:19:04.896Z,17.75
2022-09-10T14:21:33.697Z,17.72
2022-09-10T14:24:02.053Z,17.67
2022-09-10T14:26:33.483Z,17.63
2022-09-10T14:29:03.981Z,17.61
2022-09-10T14:31:38.230Z,17.60
2022-09-10T14:34:32.074Z,17.60
2022-09-10T14:37:01.515Z,17.60
2022-09-10T14:39:30.154Z,17.61
2022-09-10T14:42:23.876Z,17.60
2022-09-10T14:44:52.610Z,17.59
2022-09-10T14:47:32.380Z,17.59
2022-09-10T14:50:32.010Z,17.58
2022-09-10T14:53:00.358Z,17.57
2022-09-10T14:55:31.483Z,17.59
2022-09-10T14:58:00.206Z,17.57
2022-09-10T15:00:28.868Z,17.58
2022-09-10T15:02:57.383Z,17.59
2022-09-10T15:05:25.765Z,17.57
2022-09-10T15:07:55.431Z,17.58
2022-09-10T15:10:23.777Z,17.57
2022-09-10T15:12:53.104Z,17.58
2022-09-10T15:15:21.579Z,17.60
2022-09-10T15:17:50.064Z,17.58
2022-09-10T15:20:18.371Z,17.59
2022-09-10T15:22:46.940Z,17.58
2022-09-10T15:25:33.885Z,17.58
2022-09-10T15:28:04.453Z,17.59
2022-09-10T15:30:32.711Z,17.60
2022-09-10T15:33:03.313Z,17.61
2022-09-10T15:35:32.003Z,17.62
2022-09-10T15:38:01.672Z,17.64
2022-09-10T15:40:31.380Z,17.64
2022-09-10T15:43:00.332Z,17.62
2022-09-10T15:45:28.692Z,17.63
2022-09-10T15:47:56.992Z,17.63
2022-09-10T15:50:25.454Z,17.63
2022-09-10T15:52:53.739Z,17.64
2022-09-10T15:55:21.983Z,17.62
2022-09-10T15:57:52.906Z,17.60
2022-09-10T16:00:21.437Z,17.59
2022-09-10T16:02:51.864Z,17.57
2022-09-10T16:05:22.094Z,17.57
2022-09-10T16:07:50.426Z,17.56
2022-09-10T16:10:18.829Z,17.55
2022-09-10T16:12:47.108Z,17.53
2022-09-10T16:15:17.262Z,17.51
2022-09-10T16:17:45.741Z,17.50
2022-09-10T16:20:14.100Z,17.49
2022-09-10T16:22:42.433Z,17.48
2022-09-10T16:25:12.064Z,17.45
2022-09-10T16:27:43.159Z,17.44
2022-09-10T16:30:13.729Z,17.42
2022-09-10T16:32:43.378Z,17.40
2022-09-10T16:35:11.897Z,17.39
2022-09-10T16:37:40.609Z,17.39
2022-09-10T16:40:11.169Z,17.37
2022-09-10T16:42:39.540Z,17.36
2022-09-10T16:45:09.367Z,17.37
2022-09-10T16:47:38.081Z,17.36
2022-09-10T16:50:08.634Z,17.36
2022-09-10T16:52:37.504Z,17.36
2022-09-10T16:55:06.959Z,17.37
2022-09-10T16:57:35.726Z,17.38
2022-09-10T17:00:06.005Z,17.39
2022-09-10T17:02:35.201Z,17.40
2022-09-10T17:05:03.538Z,17.41
2022-09-10T17:07:33.221Z,17.41
2022-09-10T17:10:01.559Z,17.43
2022-09-10T17:12:29.856Z,17.45
2022-09-10T17:14:58.129Z,17.45
2022-09-10T17:17:27.213Z,17.48
2022-09-10T17:19:56.394Z,17.49
2022-09-10T17:22:24.789Z,17.50
2022-09-10T17:24:54.411Z,17.52
2022-09-10T17:27:25.535Z,17.53
2022-09-10T17:29:54.009Z,17.54
2022-09-10T17:32:22.290Z,17.55
2022-09-10T17:34:51.464Z,17.55
2022-09-10T17:37:19.924Z,17.55
2022-09-10T17:39:48.221Z,17.53
2022-09-10T17:42:17.937Z,17.52
2022-09-10T17:44:47.110Z,17.50
2022-09-10T17:47:15.401Z,17.50
2022-09-10T17:49:44.181Z,17.49
2022-09-10T17:52:13.342Z,17.48
2022-09-10T17:54:41.707Z,17.46
2022-09-10T17:57:10.392Z,17.45
2022-09-10T17:59:40.622Z,17.45
2022-09-10T18:02:14.162Z,17.43
2022-09-10T18:04:42.905Z,17.42
2022-09-10T18:07:11.993Z,17.41
2022-09-10T18:09:40.321Z,17.39
2022-09-10T18:12:08.799Z,17.39
2022-09-10T18:14:38.406Z,17.37
2022-09-10T18:17:08.092Z,17.37
2022-09-10T18:19:36.608Z,17.37
2022-09-10T18:22:05.353Z,17.35
2022-09-10T18:24:33.645Z,17.32
2022-09-10T18:27:04.548Z,17.31
2022-09-10T18:29:33.237Z,17.28
2022-09-10T18:32:02.078Z,17.27
2022-09-10T18:34:32.342Z,17.23
2022-09-10T18:37:02.168Z,17.21
2022-09-10T18:39:32.744Z,17.19
2022-09-10T18:42:02.714Z,17.17
2022-09-10T18:44:34.133Z,17.15
2022-09-10T18:47:02.461Z,17.13
2022-09-10T18:49:33.466Z,17.11
2022-09-10T18:52:01.957Z,17.11
2022-09-10T18:54:30.590Z,17.08
2022-09-10T18:56:59.137Z,17.07
2022-09-10T18:59:27.800Z,17.02
2022-09-10T19:01:56.787Z,17.01
2022-09-10T19:04:27.051Z,16.99
2022-09-10T19:06:57.824Z,16.98
2022-09-10T19:09:27.830Z,16.96
2022-09-10T19:11:58.410Z,16.94
2022-09-10T19:14:29.326Z,16.91
2022-09-10T19:16:58.844Z,16.89
2022-09-10T19:19:29.252Z,16.86
2022-09-10T19:22:01.156Z,16.83
2022-09-10T19:24:51.188Z,16.81
2022-09-10T19:27:18.392Z,16.78
2022-09-10T19:29:47.262Z,16.77
2022-09-10T19:32:16.890Z,16.76
2022-09-10T19:34:45.398Z,16.75
2022-09-10T19:37:15.115Z,16.74
2022-09-10T19:39:44.380Z,16.72
2022-09-10T19:42:13.072Z,16.72
2022-09-10T19:44:41.388Z,16.70
2022-09-10T19:47:09.714Z,16.69
2022-09-10T19:49:39.048Z,16.68
2022-09-10T19:52:07.370Z,16.68
2022-09-10T19:54:37.091Z,16.68
2022-09-10T19:57:05.571Z,16.67
2022-09-10T19:59:33.871Z,16.66
2022-09-10T20:02:02.307Z,16.65
2022-09-10T20:04:30.657Z,16.66
2022-09-10T20:06:58.907Z,16.64
2022-09-10T20:09:27.308Z,16.63
2022-09-10T20:11:56.965Z,16.61
2022-09-10T20:14:25.664Z,16.61
2022-09-10T20:16:54.651Z,16.58
2022-09-10T20:19:22.961Z,16.57
2022-09-10T20:21:51.704Z,16.57
2022-09-10T20:24:20.026Z,16.54
2022-09-10T20:26:48.926Z,16.53
2022-09-10T20:29:20.354Z,16.51
2022-09-10T20:31:49.211Z,16.51
2022-09-10T20:34:20.739Z,16.49
2022-09-10T20:36:51.079Z,16.48
2022-09-10T20:39:20.912Z,16.47
2022-09-10T20:41:49.188Z,16.44
2022-09-10T20:44:19.821Z,16.44
2022-09-10T20:46:48.086Z,16.43
2022-09-10T20:49:17.022Z,16.41
2022-09-10T20:51:45.796Z,16.37
2022-09-10T20:54:17.324Z,16.37
2022-09-10T20:56:46.390Z,16.36
2022-09-10T20:59:16.447Z,16.35
2022-09-10T21:01:47.358Z,16.35
2022-09-10T21:04:16.219Z,16.33
2022-09-10T21:06:44.551Z,16.33
2022-09-10T21:09:13.459Z,16.32
2022-09-10T21:11:41.888Z,16.32
2022-09-10T21:14:12.191Z,16.32
2022-09-10T21:16:43.122Z,16.30
2022-09-10T21:19:14.549Z,16.30
2022-09-10T21:21:44.807Z,16.30
2022-09-10T21:24:14.863Z,16.30
2022-09-10T21:26:44.048Z,16.30
2022-09-10T21:29:14.311Z,16.30
2022-09-10T21:31:43.288Z,16.30
2022-09-10T21:34:15.170Z,16.30
2022-09-10T21:36:43.715Z,16.29
2022-09-10T21:39:15.263Z,16.30
2022-09-10T21:41:45.152Z,16.29
2022-09-10T21:44:15.158Z,16.29
2022-09-10T21:46:44.714Z,16.29
2022-09-10T21:49:14.492Z,16.28
2022-09-10T21:51:43.114Z,16.29
2022-09-10T21:54:14.971Z,16.27
2022-09-10T21:56:43.191Z,16.26
2022-09-10T21:59:12.857Z,16.25
2022-09-10T22:01:43.166Z,16.24
2022-09-10T22:04:12.591Z,16.23
2022-09-10T22:06:42.201Z,16.23
2022-09-10T22:09:13.270Z,16.21
2022-09-10T22:11:43.245Z,16.20
2022-09-10T22:14:14.743Z,16.20
2022-09-10T22:16:43.337Z,16.19
2022-09-10T22:19:15.129Z,16.18
2022-09-10T22:21:44.863Z,16.17
2022-09-10T22:24:15.022Z,16.16
2022-09-10T22:26:44.935Z,16.15
2022-09-10T22:29:15.825Z,16.14
2022-09-10T22:31:44.367Z,16.14
2022-09-10T22:34:14.336Z,16.12
2022-09-10T22:36:45.863Z,16.13
2022-09-10T22:39:15.922Z,16.11
2022-09-10T22:41:45.186Z,16.10
2022-09-10T22:44:13.890Z,16.09
2022-09-10T22:46:42.940Z,16.08
2022-09-10T22:49:11.718Z,16.08
2022-09-10T22:51:41.822Z,16.07
2022-09-10T22:54:12.197Z,16.06
2022-09-10T22:56:41.909Z,16.04
2022-09-10T22:59:13.875Z,16.03
2022-09-10T23:01:43.279Z,16.03
2022-09-10T23:04:12.551Z,16.01
2022-09-10T23:06:41.316Z,16.01
2022-09-10T23:09:13.474Z,16.00
2022-09-10T23:11:42.537Z,15.99
2022-09-10T23:14:13.954Z,15.98
2022-09-10T23:16:43.665Z,15.96
2022-09-10T23:19:13.946Z,15.95
2022-09-10T23:21:44.773Z,15.94
2022-09-10T23:24:16.226Z,15.92
2022-09-10T23:26:45.686Z,15.90
2022-09-10T23:29:17.320Z,15.89
2022-09-10T23:31:47.544Z,15.89
2022-09-10T23:34:17.799Z,15.87
2022-09-10T23:36:48.729Z,15.86
2022-09-10T23:39:20.771Z,15.84
2022-09-10T23:41:49.954Z,15.83
2022-09-10T23:44:18.536Z,15.81
2022-09-10T23:46:46.899Z,15.79
2022-09-10T23:49:15.924Z,15.79
2022-09-10T23:51:44.350Z,15.76
2022-09-10T23:54:13.102Z,15.74
2022-09-10T23:56:43.144Z,15.74
2022-09-10T23:59:12.362Z,15.71
